createdAt,value
2023-04-17T00:01:23.756Z,101596.72
2023-04-17T00:03:52.836Z,101596.84
2023-04-17T00:06:19.645Z,101593.31
2023-04-17T00:08:46.286Z,101594.19
2023-04-17T00:11:12.993Z,101593.41
2023-04-17T00:13:39.683Z,101596.75
2023-04-17T00:16:06.909Z,101596.66
2023-04-17T00:18:33.582Z,101595.88
2023-04-17T00:21:00.303Z,101596.63
2023-04-17T00:23:26.924Z,101591.31
2023-04-17T00:25:53.800Z,101588.69
2023-04-17T00:28:20.727Z,101600.97
2023-04-17T00:30:47.393Z,101594.03
2023-04-17T00:33:14.039Z,101595.78
2023-04-17T00:35:40.799Z,101602.72
2023-04-17T00:38:09.216Z,101596.50
2023-04-17T00:40:36.494Z,101600.94
2023-04-17T00:43:04.217Z,101602.69
2023-04-17T00:45:31.286Z,101600.22
2023-04-17T00:47:59.246Z,101612.50
2023-04-17T00:50:27.710Z,101606.38
2023-04-17T00:52:54.721Z,101597.72
2023-04-17T00:55:21.645Z,101601.75
2023-04-17T00:57:51.296Z,101602.00
2023-04-17T01:00:18.537Z,101606.22
2023-04-17T01:02:46.685Z,101606.13
2023-04-17T01:05:13.596Z,101598.34
2023-04-17T01:07:41.320Z,101604.44
2023-04-17T01:10:08.751Z,101611.34
2023-04-17T01:12:35.939Z,101611.34
2023-04-17T01:15:02.612Z,101608.72
2023-04-17T01:17:29.438Z,101603.72
2023-04-17T01:19:57.430Z,101611.47
2023-04-17T01:22:24.107Z,101611.34
2023-04-17T01:24:50.962Z,101611.28
2023-04-17T01:27:17.720Z,101613.97
2023-04-17T01:29:44.726Z,101606.94
2023-04-17T01:32:11.435Z,101618.28
2023-04-17T01:34:38.085Z,101618.22
2023-04-17T01:37:04.951Z,101612.81
2023-04-17T01:39:31.666Z,101616.47
2023-04-17T01:41:58.300Z,101619.78
2023-04-17T01:44:24.996Z,101611.22
2023-04-17T01:46:51.837Z,101615.44
2023-04-17T01:49:18.534Z,101618.97
2023-04-17T01:51:45.212Z,101617.22
2023-04-17T01:54:11.837Z,101618.09
2023-04-17T01:56:38.533Z,101617.06
2023-04-17T01:59:05.162Z,101623.03
2023-04-17T02:01:31.884Z,101617.81
2023-04-17T02:03:58.703Z,101619.53
2023-04-17T02:06:27.395Z,101618.50
2023-04-17T02:08:54.210Z,101624.53
2023-04-17T02:11:21.026Z,101621.03
2023-04-17T02:13:47.728Z,101623.59
2023-04-17T02:16:14.527Z,101621.84
2023-04-17T02:18:41.409Z,101620.03
2023-04-17T02:21:09.727Z,101629.47
2023-04-17T02:23:36.641Z,101640.72
2023-04-17T02:26:03.322Z,101632.09
2023-04-17T02:28:30.096Z,101633.00
2023-04-17T02:30:56.978Z,101636.31
2023-04-17T02:33:23.710Z,101631.88
2023-04-17T02:35:50.562Z,101632.78
2023-04-17T02:38:17.516Z,101640.34
2023-04-17T02:40:45.673Z,101635.91
2023-04-17T02:43:14.094Z,101639.19
2023-04-17T02:45:40.868Z,101636.88
2023-04-17T02:48:07.552Z,101638.75
2023-04-17T02:50:34.167Z,101638.63
2023-04-17T02:53:00.990Z,101637.72
2023-04-17T02:55:27.692Z,101644.59
2023-04-17T02:57:54.317Z,101636.59
2023-04-17T03:00:21.376Z,101636.59
2023-04-17T03:02:48.253Z,101643.44
2023-04-17T03:05:16.000Z,101640.75
2023-04-17T03:07:42.715Z,101632.97
2023-04-17T03:10:09.708Z,101642.53
2023-04-17T03:12:36.343Z,101642.38
2023-04-17T03:15:03.048Z,101634.56
2023-04-17T03:17:29.714Z,101640.56
2023-04-17T03:19:56.527Z,101640.59
2023-04-17T03:22:23.143Z,101641.41
2023-04-17T03:24:49.742Z,101643.91
2023-04-17T03:27:16.374Z,101649.03
2023-04-17T03:29:42.972Z,101649.25
2023-04-17T03:32:09.704Z,101652.63
2023-04-17T03:34:36.375Z,101643.75
2023-04-17T03:37:03.021Z,101656.19
2023-04-17T03:39:29.593Z,101666.59
2023-04-17T03:41:56.366Z,101656.19
2023-04-17T03:44:22.992Z,101657.84
2023-04-17T03:46:50.624Z,101664.97
2023-04-17T03:49:17.245Z,101663.28
2023-04-17T03:51:43.944Z,101662.25
2023-04-17T03:54:10.574Z,101672.56
2023-04-17T03:56:37.408Z,101675.34
2023-04-17T03:59:07.059Z,101675.34
2023-04-17T04:01:34.274Z,101678.78
2023-04-17T04:04:01.818Z,101673.41
2023-04-17T04:06:29.757Z,101672.63
2023-04-17T04:08:57.142Z,101683.97
2023-04-17T04:11:23.770Z,101684.94
2023-04-17T04:13:50.432Z,101689.22
2023-04-17T04:16:17.156Z,101690.06
2023-04-17T04:18:43.799Z,101692.69
2023-04-17T04:21:12.337Z,101695.41
2023-04-17T04:23:41.273Z,101689.28
2023-04-17T04:26:08.090Z,101693.66
2023-04-17T04:28:34.737Z,101687.78
2023-04-17T04:31:02.766Z,101705.38
2023-04-17T04:33:29.936Z,101704.78
2023-04-17T04:36:01.805Z,101701.09
2023-04-17T04:38:32.872Z,101703.72
2023-04-17T04:41:01.592Z,101711.00
2023-04-17T04:43:29.112Z,101704.81
2023-04-17T04:45:56.108Z,101708.41
2023-04-17T04:48:22.917Z,101713.53
2023-04-17T04:50:49.812Z,101709.41
2023-04-17T04:53:16.638Z,101710.28
2023-04-17T04:55:43.356Z,101709.59
2023-04-17T04:58:10.044Z,101715.69
2023-04-17T05:00:37.115Z,101715.78
2023-04-17T05:03:04.014Z,101721.25
2023-04-17T05:05:31.014Z,101719.44
2023-04-17T05:07:57.704Z,101718.72
2023-04-17T05:10:24.513Z,101720.56
2023-04-17T05:12:51.201Z,101724.09
2023-04-17T05:15:17.942Z,101721.56
2023-04-17T05:17:44.942Z,101729.41
2023-04-17T05:20:15.080Z,101725.81
2023-04-17T05:22:42.074Z,101733.81
2023-04-17T05:25:08.890Z,101729.66
2023-04-17T05:27:35.615Z,101736.84
2023-04-17T05:30:02.384Z,101738.66
2023-04-17T05:32:31.276Z,101741.41
2023-04-17T05:34:58.123Z,101727.66
2023-04-17T05:37:24.930Z,101736.53
2023-04-17T05:39:51.649Z,101740.81
2023-04-17T05:42:18.454Z,101745.28
2023-04-17T05:44:45.990Z,101739.03
2023-04-17T05:47:12.875Z,101738.91
2023-04-17T05:49:39.664Z,101745.22
2023-04-17T05:52:07.997Z,101743.75
2023-04-17T05:54:34.703Z,101743.19
2023-04-17T05:57:02.386Z,101743.22
2023-04-17T05:59:31.410Z,101746.63
2023-04-17T06:01:59.589Z,101747.41
2023-04-17T06:04:26.729Z,101745.63
2023-04-17T06:06:53.773Z,101745.72
2023-04-17T06:09:22.034Z,101744.47
2023-04-17T06:11:49.774Z,101743.66
2023-04-17T06:14:16.783Z,101748.22
2023-04-17T06:16:43.744Z,101751.72
2023-04-17T06:19:11.430Z,101738.84
2023-04-17T06:21:38.403Z,101753.78
2023-04-17T06:24:05.431Z,101744.44
2023-04-17T06:26:32.221Z,101747.66
2023-04-17T06:28:58.923Z,101751.47
2023-04-17T06:31:25.655Z,101747.34
2023-04-17T06:33:52.441Z,101753.53
2023-04-17T06:36:19.088Z,101754.34
2023-04-17T06:38:47.289Z,101750.91
2023-04-17T06:41:14.568Z,101746.56
2023-04-17T06:43:41.305Z,101763.91
2023-04-17T06:46:08.155Z,101766.22
2023-04-17T06:48:34.928Z,101762.97
2023-04-17T06:51:02.835Z,101767.22
2023-04-17T06:53:29.641Z,101766.41
2023-04-17T06:55:56.341Z,101767.31
2023-04-17T06:58:23.103Z,101766.94
2023-04-17T07:00:49.824Z,101775.66
2023-04-17T07:03:16.738Z,101774.53
2023-04-17T07:05:44.354Z,101785.22
2023-04-17T07:08:11.114Z,101778.03
2023-04-17T07:10:37.813Z,101786.00
2023-04-17T07:13:04.604Z,101787.69
2023-04-17T07:15:31.573Z,101793.13
2023-04-17T07:17:58.391Z,101787.59
2023-04-17T07:20:25.347Z,101788.31
2023-04-17T07:22:52.074Z,101792.00
2023-04-17T07:25:20.034Z,101790.22
2023-04-17T07:27:46.783Z,101797.31
2023-04-17T07:30:13.581Z,101790.41
2023-04-17T07:32:40.423Z,101788.88
2023-04-17T07:35:07.770Z,101793.41
2023-04-17T07:37:34.807Z,101794.16
2023-04-17T07:40:01.508Z,101801.25
2023-04-17T07:42:29.282Z,101797.78
2023-04-17T07:44:57.566Z,101796.94
2023-04-17T07:47:24.406Z,101797.81
2023-04-17T07:49:51.495Z,101803.25
2023-04-17T07:52:18.321Z,101809.41
2023-04-17T07:54:45.658Z,101804.22
2023-04-17T07:57:12.410Z,101811.31
2023-04-17T07:59:39.116Z,101811.41
2023-04-17T08:02:06.039Z,101819.22
2023-04-17T08:04:33.477Z,101815.50
2023-04-17T08:07:00.279Z,101821.84
2023-04-17T08:09:26.899Z,101824.38
2023-04-17T08:11:57.414Z,101821.97
2023-04-17T08:14:25.032Z,101827.84
2023-04-17T08:16:51.888Z,101829.84
2023-04-17T08:19:18.716Z,101829.75
2023-04-17T08:21:47.718Z,101827.94
2023-04-17T08:24:14.457Z,101833.38
2023-04-17T08:26:41.541Z,101834.25
2023-04-17T08:29:08.199Z,101835.00
2023-04-17T08:31:39.870Z,101840.44
2023-04-17T08:34:14.554Z,101845.81
2023-04-17T08:36:42.754Z,101847.63
2023-04-17T08:39:11.197Z,101840.69
2023-04-17T08:41:51.096Z,101848.59
2023-04-17T08:44:20.601Z,101851.28
2023-04-17T08:46:47.651Z,101855.69
2023-04-17T08:49:14.975Z,101863.69
2023-04-17T08:51:42.257Z,101855.75
2023-04-17T08:54:10.243Z,101866.31
2023-04-17T08:56:36.885Z,101862.84
2023-04-17T08:59:04.574Z,101866.22
2023-04-17T09:01:31.305Z,101870.41
2023-04-17T09:03:58.279Z,101875.72
2023-04-17T09:06:25.039Z,101877.72
2023-04-17T09:09:00.418Z,101876.88
2023-04-17T09:11:27.566Z,101878.66
2023-04-17T09:13:54.502Z,101879.56
2023-04-17T09:16:21.250Z,101882.09
2023-04-17T09:18:48.144Z,101890.94
2023-04-17T09:21:19.143Z,101884.69
2023-04-17T09:23:51.252Z,101876.91
2023-04-17T09:26:24.149Z,101878.69
2023-04-17T09:29:00.984Z,101876.91
2023-04-17T09:31:30.477Z,101884.84
2023-04-17T09:34:02.597Z,101887.41
2023-04-17T09:36:31.267Z,101868.19
2023-04-17T09:39:04.488Z,101878.75
2023-04-17T09:41:32.044Z,101890.16
2023-04-17T09:44:02.029Z,101886.63
2023-04-17T09:46:38.170Z,101895.47
2023-04-17T09:49:18.878Z,101890.94
2023-04-17T09:51:46.466Z,101893.59
2023-04-17T09:54:15.047Z,101898.91
2023-04-17T09:56:42.281Z,101887.53
2023-04-17T09:59:09.877Z,101892.75
2023-04-17T10:01:37.913Z,101891.78
2023-04-17T10:04:05.523Z,101892.75
2023-04-17T10:06:32.855Z,101888.41
2023-04-17T10:08:59.646Z,101891.09
2023-04-17T10:11:30.169Z,101904.34
2023-04-17T10:14:10.674Z,101903.34
2023-04-17T10:16:39.244Z,101902.53
2023-04-17T10:19:29.793Z,101902.44
2023-04-17T10:22:18.008Z,101902.44
2023-04-17T10:24:45.695Z,101900.66
2023-04-17T10:27:24.552Z,101897.09
2023-04-17T10:29:59.235Z,101899.78
2023-04-17T10:32:29.077Z,101898.78
2023-04-17T10:35:00.973Z,101901.38
2023-04-17T10:37:52.567Z,101893.53
2023-04-17T10:40:24.060Z,101890.16
2023-04-17T10:43:22.858Z,101894.56
2023-04-17T10:46:12.997Z,101898.00
2023-04-17T10:48:52.913Z,101893.59
2023-04-17T10:51:29.119Z,101888.34
2023-04-17T10:53:57.848Z,101888.31
2023-04-17T10:56:27.151Z,101889.16
2023-04-17T10:59:18.416Z,101894.44
2023-04-17T11:01:48.254Z,101892.53
2023-04-17T11:04:23.741Z,101890.75
2023-04-17T11:06:55.487Z,101901.25
2023-04-17T11:09:23.853Z,101899.44
2023-04-17T11:11:50.618Z,101898.63
2023-04-17T11:14:19.149Z,101893.47
2023-04-17T11:16:47.484Z,101888.28
2023-04-17T11:19:19.225Z,101891.91
2023-04-17T11:21:48.176Z,101891.94
2023-04-17T11:24:25.287Z,101893.69
2023-04-17T11:26:52.095Z,101888.47
2023-04-17T11:29:20.499Z,101882.31
2023-04-17T11:31:48.305Z,101887.59
2023-04-17T11:34:18.426Z,101895.53
2023-04-17T11:36:52.744Z,101892.88
2023-04-17T11:39:21.264Z,101898.97
2023-04-17T11:41:48.049Z,101899.84
2023-04-17T11:44:16.879Z,101905.03
2023-04-17T11:46:43.586Z,101909.34
2023-04-17T11:49:11.703Z,101920.72
2023-04-17T11:51:38.578Z,101910.00
2023-04-17T11:54:05.465Z,101916.25
2023-04-17T11:56:32.171Z,101920.59
2023-04-17T11:59:00.205Z,101920.41
2023-04-17T12:01:28.235Z,101913.22
2023-04-17T12:03:57.126Z,101914.09
2023-04-17T12:06:26.749Z,101919.50
2023-04-17T12:08:54.834Z,101927.47
2023-04-17T12:11:31.123Z,101916.66
2023-04-17T12:13:57.818Z,101929.00
2023-04-17T12:16:25.632Z,101917.53
2023-04-17T12:18:52.828Z,101917.66
2023-04-17T12:21:20.621Z,101915.97
2023-04-17T12:23:47.720Z,101919.41
2023-04-17T12:26:14.495Z,101917.66
2023-04-17T12:28:41.160Z,101923.81
2023-04-17T12:31:07.827Z,101922.00
2023-04-17T12:33:34.724Z,101919.34
2023-04-17T12:36:02.652Z,101921.25
2023-04-17T12:38:29.814Z,101922.06
2023-04-17T12:40:56.554Z,101926.41
2023-04-17T12:43:23.212Z,101922.88
2023-04-17T12:45:50.348Z,101922.94
2023-04-17T12:48:17.105Z,101929.06
2023-04-17T12:50:44.325Z,101933.41
2023-04-17T12:53:13.309Z,101923.88
2023-04-17T12:55:43.893Z,101926.56
2023-04-17T12:58:12.176Z,101919.50
2023-04-17T13:00:44.042Z,101922.94
2023-04-17T13:03:12.107Z,101922.91
2023-04-17T13:05:39.623Z,101924.69
2023-04-17T13:08:06.453Z,101926.38
2023-04-17T13:10:34.293Z,101928.75
2023-04-17T13:13:03.541Z,101933.09
2023-04-17T13:15:30.409Z,101930.44
2023-04-17T13:17:57.222Z,101933.25
2023-04-17T13:20:23.859Z,101935.00
2023-04-17T13:22:50.569Z,101929.81
2023-04-17T13:25:17.225Z,101929.81
2023-04-17T13:27:43.885Z,101930.69
2023-04-17T13:30:10.924Z,101934.75
2023-04-17T13:32:37.723Z,101925.97
2023-04-17T13:35:05.289Z,101941.16
2023-04-17T13:37:32.088Z,101934.81
2023-04-17T13:39:59.748Z,101931.38
2023-04-17T13:42:26.793Z,101933.25
2023-04-17T13:44:53.390Z,101942.19
2023-04-17T13:47:20.080Z,101929.06
2023-04-17T13:49:46.885Z,101929.97
2023-04-17T13:52:13.653Z,101932.50
2023-04-17T13:54:43.308Z,101932.59
2023-04-17T13:57:10.570Z,101926.31
2023-04-17T13:59:37.164Z,101927.19
2023-04-17T14:02:04.237Z,101933.38
2023-04-17T14:04:31.673Z,101935.09
2023-04-17T14:06:59.328Z,101937.66
2023-04-17T14:09:26.024Z,101932.13
2023-04-17T14:11:52.750Z,101931.16
2023-04-17T14:14:19.364Z,101926.66
2023-04-17T14:16:50.883Z,101930.28
2023-04-17T14:19:17.981Z,101932.91
2023-04-17T14:21:44.900Z,101927.63
2023-04-17T14:24:11.611Z,101931.06
2023-04-17T14:26:38.671Z,101929.44
2023-04-17T14:29:05.353Z,101937.09
2023-04-17T14:31:32.404Z,101925.53
2023-04-17T14:33:59.538Z,101935.34
2023-04-17T14:36:26.330Z,101944.03
2023-04-17T14:38:54.269Z,101938.88
2023-04-17T14:41:21.027Z,101938.06
2023-04-17T14:43:47.726Z,101942.34
2023-04-17T14:46:14.461Z,101943.31
2023-04-17T14:48:54.789Z,101943.31
2023-04-17T14:51:23.769Z,101939.75
2023-04-17T14:53:53.048Z,101943.25
2023-04-17T14:56:21.472Z,101940.63
2023-04-17T14:58:48.232Z,101944.16
2023-04-17T15:01:14.904Z,101946.59
2023-04-17T15:03:46.748Z,101950.91
2023-04-17T15:06:15.731Z,101947.31
2023-04-17T15:08:42.697Z,101946.47
2023-04-17T15:11:09.422Z,101945.66
2023-04-17T15:13:36.081Z,101939.63
2023-04-17T15:16:02.823Z,101942.19
2023-04-17T15:18:29.536Z,101955.50
2023-04-17T15:20:56.150Z,101938.59
2023-04-17T15:23:22.958Z,101936.97
2023-04-17T15:25:49.646Z,101945.00
2023-04-17T15:28:16.322Z,101948.28
2023-04-17T15:30:43.031Z,101939.47
2023-04-17T15:33:10.432Z,101945.09
2023-04-17T15:35:37.725Z,101939.63
2023-04-17T15:38:06.464Z,101939.81
2023-04-17T15:40:33.978Z,101935.44
2023-04-17T15:43:01.253Z,101940.78
2023-04-17T15:45:27.975Z,101943.44
2023-04-17T15:47:54.810Z,101945.09
2023-04-17T15:50:22.080Z,101945.09
2023-04-17T15:52:48.672Z,101943.97
2023-04-17T15:55:15.361Z,101947.47
2023-04-17T15:57:43.066Z,101946.63
2023-04-17T16:00:10.550Z,101951.84
2023-04-17T16:02:37.409Z,101950.84
2023-04-17T16:05:04.589Z,101947.50
2023-04-17T16:07:31.927Z,101946.47
2023-04-17T16:09:58.977Z,101949.75
2023-04-17T16:12:28.073Z,101960.25
2023-04-17T16:14:54.836Z,101950.75
2023-04-17T16:17:21.535Z,101951.81
2023-04-17T16:19:50.359Z,101953.28
2023-04-17T16:22:18.433Z,101961.22
2023-04-17T16:24:45.127Z,101954.16
2023-04-17T16:27:11.832Z,101960.06
2023-04-17T16:29:38.431Z,101957.56
2023-04-17T16:32:05.115Z,101956.53
2023-04-17T16:34:31.700Z,101960.03
2023-04-17T16:36:58.337Z,101961.88
2023-04-17T16:39:24.924Z,101959.41
2023-04-17T16:41:52.805Z,101960.13
2023-04-17T16:44:19.794Z,101962.88
2023-04-17T16:47:09.583Z,101968.69
2023-04-17T16:49:32.989Z,101963.47
2023-04-17T16:51:59.697Z,101974.72
2023-04-17T16:54:26.483Z,101967.78
2023-04-17T16:56:53.226Z,101973.16
2023-04-17T16:59:19.847Z,101966.03
2023-04-17T17:01:49.858Z,101972.22
2023-04-17T17:04:16.660Z,101971.19
2023-04-17T17:06:43.372Z,101960.69
2023-04-17T17:09:10.054Z,101972.16
2023-04-17T17:11:36.740Z,101978.09
2023-04-17T17:14:20.901Z,101978.84
2023-04-17T17:16:47.693Z,101971.97
2023-04-17T17:19:14.847Z,101980.78
2023-04-17T17:21:41.668Z,101985.91
2023-04-17T17:24:08.310Z,101987.41
2023-04-17T17:26:36.900Z,101987.41
2023-04-17T17:29:03.792Z,101991.66
2023-04-17T17:31:30.817Z,101998.66
2023-04-17T17:34:12.020Z,101993.41
2023-04-17T17:36:48.796Z,102000.63
2023-04-17T17:39:15.546Z,101997.06
2023-04-17T17:41:42.142Z,102001.44
2023-04-17T17:44:08.717Z,102004.81
2023-04-17T17:46:35.860Z,101993.56
2023-04-17T17:49:02.617Z,102000.41
2023-04-17T17:51:29.212Z,102009.97
2023-04-17T17:53:55.812Z,102004.72
2023-04-17T17:56:23.559Z,102002.22
2023-04-17T17:58:51.164Z,101996.06
2023-04-17T18:01:17.953Z,101999.59
2023-04-17T18:03:46.672Z,102007.34
2023-04-17T18:06:14.663Z,102005.59
2023-04-17T18:08:41.281Z,102003.88
2023-04-17T18:11:08.120Z,102010.78
2023-04-17T18:13:34.699Z,102008.94
2023-04-17T18:16:04.158Z,102006.94
2023-04-17T18:18:30.921Z,102013.75
2023-04-17T18:20:57.545Z,102014.69
2023-04-17T18:23:24.144Z,102014.81
2023-04-17T18:25:58.731Z,102019.25
2023-04-17T18:28:25.940Z,102020.88
2023-04-17T18:30:52.740Z,102031.25
2023-04-17T18:33:19.488Z,102027.16
2023-04-17T18:35:46.189Z,102030.59
2023-04-17T18:38:12.820Z,102037.44
2023-04-17T18:40:39.413Z,102035.53
2023-04-17T18:43:06.254Z,102030.50
2023-04-17T18:45:34.513Z,102030.47
2023-04-17T18:48:01.230Z,102034.91
2023-04-17T18:50:28.093Z,102032.41
2023-04-17T18:52:54.714Z,102032.38
2023-04-17T18:55:21.398Z,102031.38
2023-04-17T18:57:48.092Z,102033.13
2023-04-17T19:00:14.909Z,102036.56
2023-04-17T19:02:41.959Z,102036.28
2023-04-17T19:05:09.057Z,102039.06
2023-04-17T19:07:35.789Z,102038.00
2023-04-17T19:10:02.535Z,102030.28
2023-04-17T19:12:30.486Z,102040.88
2023-04-17T19:14:59.945Z,102037.34
2023-04-17T19:17:26.592Z,102046.69
2023-04-17T19:19:53.197Z,102040.63
2023-04-17T19:22:20.029Z,102038.03
2023-04-17T19:24:49.901Z,102039.78
2023-04-17T19:27:17.145Z,102039.81
2023-04-17T19:29:43.818Z,102045.00
2023-04-17T19:32:10.910Z,102034.59
2023-04-17T19:34:38.468Z,102038.97
2023-04-17T19:37:05.421Z,102041.50
2023-04-17T19:39:32.089Z,102038.94
2023-04-17T19:41:58.744Z,102038.94
2023-04-17T19:44:27.971Z,102030.31
2023-04-17T19:46:55.331Z,102038.97
2023-04-17T19:49:22.010Z,102039.81
2023-04-17T19:51:48.659Z,102044.13
2023-04-17T19:54:15.920Z,102042.41
2023-04-17T19:56:42.598Z,102046.69
2023-04-17T19:59:12.535Z,102044.34
2023-04-17T20:01:42.080Z,102046.09
2023-04-17T20:04:10.321Z,102037.16
2023-04-17T20:06:37.172Z,102034.69
2023-04-17T20:09:04.803Z,102042.44
2023-04-17T20:11:31.455Z,102043.25
2023-04-17T20:13:58.096Z,102048.22
2023-04-17T20:16:24.932Z,102046.00
2023-04-17T20:18:52.051Z,102049.41
2023-04-17T20:21:18.845Z,102055.34
2023-04-17T20:23:47.698Z,102045.94
2023-04-17T20:26:14.912Z,102048.41
2023-04-17T20:28:42.244Z,102044.97
2023-04-17T20:31:09.006Z,102064.63
2023-04-17T20:33:35.761Z,102058.66
2023-04-17T20:36:03.109Z,102062.09
2023-04-17T20:38:29.843Z,102048.72
2023-04-17T20:40:56.629Z,102059.28
2023-04-17T20:43:23.305Z,102052.06
2023-04-17T20:45:50.412Z,102052.19
2023-04-17T20:48:17.080Z,102049.38
2023-04-17T20:50:44.546Z,102057.06
2023-04-17T20:53:11.226Z,102054.41
2023-04-17T20:55:38.207Z,102059.47
2023-04-17T20:58:04.914Z,102056.09
2023-04-17T21:00:31.648Z,102064.63
2023-04-17T21:02:58.424Z,102052.66
2023-04-17T21:05:25.101Z,102051.41
2023-04-17T21:07:52.035Z,102054.97
2023-04-17T21:10:19.986Z,102050.59
2023-04-17T21:12:46.892Z,102053.19
2023-04-17T21:15:13.523Z,102060.09
2023-04-17T21:17:40.283Z,102061.28
2023-04-17T21:20:07.659Z,102061.72
2023-04-17T21:22:34.362Z,102063.50
2023-04-17T21:25:01.083Z,102067.69
2023-04-17T21:27:27.737Z,102064.81
2023-04-17T21:29:54.386Z,102068.25
2023-04-17T21:32:21.125Z,102067.13
2023-04-17T21:34:47.886Z,102072.31
2023-04-17T21:37:14.502Z,102068.50
2023-04-17T21:39:41.113Z,102061.47
2023-04-17T21:42:09.744Z,102071.75
2023-04-17T21:44:36.344Z,102069.09
2023-04-17T21:47:02.937Z,102070.59
2023-04-17T21:49:29.532Z,102071.31
2023-04-17T21:51:57.118Z,102078.28
2023-04-17T21:54:25.353Z,102072.13
2023-04-17T21:56:51.989Z,102073.97
2023-04-17T21:59:18.694Z,102074.59
2023-04-17T22:01:45.324Z,102078.09
2023-04-17T22:04:12.059Z,102083.47
2023-04-17T22:06:38.870Z,102071.31
2023-04-17T22:09:05.540Z,102080.75
2023-04-17T22:11:32.403Z,102084.53
2023-04-17T22:13:59.045Z,102081.50
2023-04-17T22:16:25.879Z,102088.66
2023-04-17T22:18:52.609Z,102081.63
2023-04-17T22:21:19.358Z,102078.25
2023-04-17T22:23:46.045Z,102077.44
2023-04-17T22:26:12.725Z,102083.56
2023-04-17T22:28:39.340Z,102082.44
2023-04-17T22:31:06.204Z,102084.25
2023-04-17T22:33:32.823Z,102082.03
2023-04-17T22:35:59.422Z,102083.91
2023-04-17T22:38:26.042Z,102090.28
2023-04-17T22:40:52.691Z,102089.25
2023-04-17T22:43:19.329Z,102088.34
2023-04-17T22:45:46.086Z,102092.25
2023-04-17T22:48:12.799Z,102097.44
2023-04-17T22:50:39.532Z,102092.75
2023-04-17T22:53:06.165Z,102085.97
2023-04-17T22:55:33.296Z,102092.91
2023-04-17T22:58:01.491Z,102092.22
2023-04-17T23:00:28.302Z,102087.44
2023-04-17T23:02:55.066Z,102085.66
2023-04-17T23:05:21.824Z,102093.72
2023-04-17T23:07:48.601Z,102082.38
2023-04-17T23:10:15.334Z,102085.78
2023-04-17T23:12:44.238Z,102095.34
2023-04-17T23:15:11.215Z,102090.00
2023-04-17T23:17:37.878Z,102090.00
2023-04-17T23:20:04.821Z,102092.75
2023-04-17T23:22:31.475Z,102091.84
2023-04-17T23:24:58.212Z,102091.56
2023-04-17T23:27:24.887Z,102087.19
2023-04-17T23:29:51.524Z,102095.78
2023-04-17T23:32:18.308Z,102096.75
2023-04-17T23:34:44.922Z,102094.97
2023-04-17T23:37:11.962Z,102091.91
2023-04-17T23:39:38.575Z,102088.56
2023-04-17T23:42:07.908Z,102091.56
2023-04-17T23:44:34.700Z,102094.09
2023-04-17T23:47:02.985Z,102088.72
2023-04-17T23:49:29.615Z,102084.38
2023-04-17T23:51:56.552Z,102084.13
2023-04-17T23:54:23.173Z,102090.19
2023-04-17T23:56:49.831Z,102092.34
2023-04-17T23:59:16.646Z,102095.81
